sensor_id;sensor_type;location;lat;lon;timestamp;temperature;humidity
66086;DHT22;52868;49.758;9.586;2022-10-16T00:01:33;17.40;81.30
66086;DHT22;52868;49.758;9.586;2022-10-16T00:04:01;17.40;81.10
66086;DHT22;52868;49.758;9.586;2022-10-16T00:06:28;17.40;81.40
66086;DHT22;52868;49.758;9.586;2022-10-16T00:08:54;17.40;81.20
66086;DHT22;52868;49.758;9.586;2022-10-16T00:13:47;17.40;81.50
66086;DHT22;52868;49.758;9.586;2022-10-16T00:16:13;17.50;81.10
66086;DHT22;52868;49.758;9.586;2022-10-16T00:18:39;17.40;81.10
66086;DHT22;52868;49.758;9.586;2022-10-16T00:21:14;17.40;81.10
66086;DHT22;52868;49.758;9.586;2022-10-16T00:23:40;17.40;81.10
66086;DHT22;52868;49.758;9.586;2022-10-16T00:26:12;17.40;81.10
66086;DHT22;52868;49.758;9.586;2022-10-16T00:28:38;17.40;81.00
66086;DHT22;52868;49.758;9.586;2022-10-16T00:31:08;17.40;81.00
66086;DHT22;52868;49.758;9.586;2022-10-16T00:33:35;17.50;81.20
66086;DHT22;52868;49.758;9.586;2022-10-16T00:36:02;17.40;81.20
66086;DHT22;52868;49.758;9.586;2022-10-16T00:38:28;17.40;81.20
66086;DHT22;52868;49.758;9.586;2022-10-16T00:40:54;17.40;81.20
66086;DHT22;52868;49.758;9.586;2022-10-16T00:43:39;17.40;81.10
66086;DHT22;52868;49.758;9.586;2022-10-16T00:46:16;17.40;81.90
66086;DHT22;52868;49.758;9.586;2022-10-16T00:48:48;17.40;82.00
66086;DHT22;52868;49.758;9.586;2022-10-16T00:51:14;17.50;81.50
66086;DHT22;52868;49.758;9.586;2022-10-16T00:53:40;17.50;81.40
66086;DHT22;52868;49.758;9.586;2022-10-16T00:56:06;17.50;81.60
66086;DHT22;52868;49.758;9.586;2022-10-16T00:58:32;17.40;82.00
66086;DHT22;52868;49.758;9.586;2022-10-16T01:00:57;17.40;82.00
66086;DHT22;52868;49.758;9.586;2022-10-16T01:03:35;17.40;81.90
66086;DHT22;52868;49.758;9.586;2022-10-16T01:08:43;17.50;81.50
66086;DHT22;52868;49.758;9.586;2022-10-16T01:11:36;17.50;81.90
66086;DHT22;52868;49.758;9.586;2022-10-16T01:14:15;17.50;81.50
66086;DHT22;52868;49.758;9.586;2022-10-16T01:16:55;17.40;81.90
66086;DHT22;52868;49.758;9.586;2022-10-16T01:19:50;17.50;81.80
66086;DHT22;52868;49.758;9.586;2022-10-16T01:22:18;17.50;81.50
66086;DHT22;52868;49.758;9.586;2022-10-16T01:24:48;17.40;81.40
66086;DHT22;52868;49.758;9.586;2022-10-16T01:27:43;17.50;81.30
66086;DHT22;52868;49.758;9.586;2022-10-16T01:30:17;17.50;81.40
66086;DHT22;52868;49.758;9.586;2022-10-16T01:32:53;17.50;81.30
66086;DHT22;52868;49.758;9.586;2022-10-16T01:35:38;17.50;81.10
66086;DHT22;52868;49.758;9.586;2022-10-16T01:40:39;17.50;81.50
66086;DHT22;52868;49.758;9.586;2022-10-16T01:43:08;17.50;81.20
66086;DHT22;52868;49.758;9.586;2022-10-16T01:45:36;17.50;81.20
66086;DHT22;52868;49.758;9.586;2022-10-16T01:48:04;17.40;81.50
66086;DHT22;52868;49.758;9.586;2022-10-16T01:50:35;17.40;81.30
66086;DHT22;52868;49.758;9.586;2022-10-16T01:53:03;17.40;81.60
66086;DHT22;52868;49.758;9.586;2022-10-16T01:55:33;17.40;81.20
66086;DHT22;52868;49.758;9.586;2022-10-16T01:58:02;17.40;81.30
66086;DHT22;52868;49.758;9.586;2022-10-16T02:00:30;17.40;81.40
66086;DHT22;52868;49.758;9.586;2022-10-16T02:02:58;17.40;81.40
66086;DHT22;52868;49.758;9.586;2022-10-16T02:05:40;17.40;81.60
66086;DHT22;52868;49.758;9.586;2022-10-16T02:08:07;17.40;82.00
66086;DHT22;52868;49.758;9.586;2022-10-16T02:10:34;17.40;81.90
66086;DHT22;52868;49.758;9.586;2022-10-16T02:13:13;17.30;82.00
66086;DHT22;52868;49.758;9.586;2022-10-16T02:15:41;17.30;82.20
66086;DHT22;52868;49.758;9.586;2022-10-16T02:18:08;17.30;82.20
66086;DHT22;52868;49.758;9.586;2022-10-16T02:20:41;17.40;82.00
66086;DHT22;52868;49.758;9.586;2022-10-16T02:23:12;17.40;81.80
66086;DHT22;52868;49.758;9.586;2022-10-16T02:25:44;17.40;81.80
66086;DHT22;52868;49.758;9.586;2022-10-16T02:28:19;17.30;81.90
66086;DHT22;52868;49.758;9.586;2022-10-16T02:31:04;17.30;81.70
66086;DHT22;52868;49.758;9.586;2022-10-16T02:33:34;17.40;81.70
66086;DHT22;52868;49.758;9.586;2022-10-16T02:36:01;17.40;81.80
66086;DHT22;52868;49.758;9.586;2022-10-16T02:38:27;17.40;81.60
66086;DHT22;52868;49.758;9.586;2022-10-16T02:40:56;17.40;81.60
66086;DHT22;52868;49.758;9.586;2022-10-16T02:43:21;17.40;81.80
66086;DHT22;52868;49.758;9.586;2022-10-16T02:45:47;17.40;81.80
66086;DHT22;52868;49.758;9.586;2022-10-16T02:48:13;17.40;81.80
66086;DHT22;52868;49.758;9.586;2022-10-16T02:50:38;17.40;81.60
66086;DHT22;52868;49.758;9.586;2022-10-16T02:53:04;17.40;81.80
66086;DHT22;52868;49.758;9.586;2022-10-16T02:55:29;17.40;81.70
66086;DHT22;52868;49.758;9.586;2022-10-16T02:57:55;17.40;81.50
66086;DHT22;52868;49.758;9.586;2022-10-16T03:00:21;17.40;81.60
66086;DHT22;52868;49.758;9.586;2022-10-16T03:02:47;17.40;81.50
66086;DHT22;52868;49.758;9.586;2022-10-16T03:05:13;17.40;81.50
66086;DHT22;52868;49.758;9.586;2022-10-16T03:07:39;17.40;81.60
66086;DHT22;52868;49.758;9.586;2022-10-16T03:10:05;17.40;81.70
66086;DHT22;52868;49.758;9.586;2022-10-16T03:12:31;17.40;81.70
66086;DHT22;52868;49.758;9.586;2022-10-16T03:14:57;17.30;81.80
66086;DHT22;52868;49.758;9.586;2022-10-16T03:17:23;17.40;81.60
66086;DHT22;52868;49.758;9.586;2022-10-16T03:19:48;17.40;81.70
66086;DHT22;52868;49.758;9.586;2022-10-16T03:22:14;17.40;81.60
66086;DHT22;52868;49.758;9.586;2022-10-16T03:24:40;17.40;81.50
66086;DHT22;52868;49.758;9.586;2022-10-16T03:27:05;17.40;81.50
66086;DHT22;52868;49.758;9.586;2022-10-16T03:29:31;17.40;81.50
66086;DHT22;52868;49.758;9.586;2022-10-16T03:31:58;17.40;81.50
66086;DHT22;52868;49.758;9.586;2022-10-16T03:34:24;17.40;81.60
66086;DHT22;52868;49.758;9.586;2022-10-16T03:36:51;17.40;81.50
66086;DHT22;52868;49.758;9.586;2022-10-16T03:39:16;17.40;81.60
66086;DHT22;52868;49.758;9.586;2022-10-16T03:41:42;17.40;81.40
66086;DHT22;52868;49.758;9.586;2022-10-16T03:44:08;17.40;81.50
66086;DHT22;52868;49.758;9.586;2022-10-16T03:46:33;17.40;81.40
66086;DHT22;52868;49.758;9.586;2022-10-16T03:48:59;17.40;81.40
66086;DHT22;52868;49.758;9.586;2022-10-16T03:51:24;17.40;81.40
66086;DHT22;52868;49.758;9.586;2022-10-16T03:53:50;17.40;81.60
66086;DHT22;52868;49.758;9.586;2022-10-16T03:56:16;17.40;81.40
66086;DHT22;52868;49.758;9.586;2022-10-16T03:58:41;17.40;81.40
66086;DHT22;52868;49.758;9.586;2022-10-16T04:01:07;17.40;81.30
66086;DHT22;52868;49.758;9.586;2022-10-16T04:03:33;17.50;81.40
66086;DHT22;52868;49.758;9.586;2022-10-16T04:05:58;17.40;81.30
66086;DHT22;52868;49.758;9.586;2022-10-16T04:08:24;17.40;81.30
66086;DHT22;52868;49.758;9.586;2022-10-16T04:10:50;17.40;81.30
66086;DHT22;52868;49.758;9.586;2022-10-16T04:13:15;17.40;81.40
66086;DHT22;52868;49.758;9.586;2022-10-16T04:15:42;17.40;81.40
66086;DHT22;52868;49.758;9.586;2022-10-16T04:18:07;17.40;81.50
66086;DHT22;52868;49.758;9.586;2022-10-16T04:20:33;17.40;81.30
66086;DHT22;52868;49.758;9.586;2022-10-16T04:22:59;17.40;81.40
66086;DHT22;52868;49.758;9.586;2022-10-16T04:25:25;17.40;81.50
66086;DHT22;52868;49.758;9.586;2022-10-16T04:27:53;17.30;81.30
66086;DHT22;52868;49.758;9.586;2022-10-16T04:30:19;17.40;81.30
66086;DHT22;52868;49.758;9.586;2022-10-16T04:32:51;17.40;81.40
66086;DHT22;52868;49.758;9.586;2022-10-16T04:35:18;17.30;81.50
66086;DHT22;52868;49.758;9.586;2022-10-16T04:37:44;17.40;81.40
66086;DHT22;52868;49.758;9.586;2022-10-16T04:40:09;17.40;81.40
66086;DHT22;52868;49.758;9.586;2022-10-16T04:42:35;17.40;81.30
66086;DHT22;52868;49.758;9.586;2022-10-16T04:45:01;17.40;81.50
66086;DHT22;52868;49.758;9.586;2022-10-16T04:47:26;17.40;81.30
66086;DHT22;52868;49.758;9.586;2022-10-16T04:49:55;17.40;81.40
66086;DHT22;52868;49.758;9.586;2022-10-16T04:52:21;17.40;81.50
66086;DHT22;52868;49.758;9.586;2022-10-16T04:54:49;17.30;81.50
66086;DHT22;52868;49.758;9.586;2022-10-16T04:57:16;17.30;81.60
66086;DHT22;52868;49.758;9.586;2022-10-16T04:59:41;17.30;81.80
66086;DHT22;52868;49.758;9.586;2022-10-16T05:02:07;17.40;81.50
66086;DHT22;52868;49.758;9.586;2022-10-16T05:04:33;17.30;81.70
66086;DHT22;52868;49.758;9.586;2022-10-16T05:06:58;17.30;81.50
66086;DHT22;52868;49.758;9.586;2022-10-16T05:09:24;17.30;81.40
66086;DHT22;52868;49.758;9.586;2022-10-16T05:11:49;17.30;81.40
66086;DHT22;52868;49.758;9.586;2022-10-16T05:14:15;17.30;81.30
66086;DHT22;52868;49.758;9.586;2022-10-16T05:16:41;17.30;81.20
66086;DHT22;52868;49.758;9.586;2022-10-16T05:19:06;17.30;81.40
66086;DHT22;52868;49.758;9.586;2022-10-16T05:21:32;17.30;81.20
66086;DHT22;52868;49.758;9.586;2022-10-16T05:23:57;17.30;81.30
66086;DHT22;52868;49.758;9.586;2022-10-16T05:26:23;17.30;81.30
66086;DHT22;52868;49.758;9.586;2022-10-16T05:28:49;17.30;81.20
66086;DHT22;52868;49.758;9.586;2022-10-16T05:31:15;17.30;81.20
66086;DHT22;52868;49.758;9.586;2022-10-16T05:33:41;17.30;81.30
66086;DHT22;52868;49.758;9.586;2022-10-16T05:36:08;17.30;81.30
66086;DHT22;52868;49.758;9.586;2022-10-16T05:38:35;17.30;81.10
66086;DHT22;52868;49.758;9.586;2022-10-16T05:41:01;17.30;81.20
66086;DHT22;52868;49.758;9.586;2022-10-16T05:43:28;17.30;81.70
66086;DHT22;52868;49.758;9.586;2022-10-16T05:45:58;17.30;81.70
66086;DHT22;52868;49.758;9.586;2022-10-16T05:48:25;17.30;81.80
66086;DHT22;52868;49.758;9.586;2022-10-16T05:51:01;17.30;81.80
66086;DHT22;52868;49.758;9.586;2022-10-16T05:53:29;17.30;81.70
66086;DHT22;52868;49.758;9.586;2022-10-16T05:55:55;17.30;81.80
66086;DHT22;52868;49.758;9.586;2022-10-16T05:58:22;17.30;81.90
66086;DHT22;52868;49.758;9.586;2022-10-16T06:00:59;17.30;81.90
66086;DHT22;52868;49.758;9.586;2022-10-16T06:03:25;17.30;81.90
66086;DHT22;52868;49.758;9.586;2022-10-16T06:05:51;17.30;81.90
66086;DHT22;52868;49.758;9.586;2022-10-16T06:08:19;17.30;82.00
66086;DHT22;52868;49.758;9.586;2022-10-16T06:10:45;17.30;81.80
66086;DHT22;52868;49.758;9.586;2022-10-16T06:13:12;17.30;81.80
66086;DHT22;52868;49.758;9.586;2022-10-16T06:15:39;17.30;81.60
66086;DHT22;52868;49.758;9.586;2022-10-16T06:18:09;17.30;81.80
66086;DHT22;52868;49.758;9.586;2022-10-16T06:20:36;17.30;81.90
66086;DHT22;52868;49.758;9.586;2022-10-16T06:23:01;17.30;82.10
66086;DHT22;52868;49.758;9.586;2022-10-16T06:25:27;17.20;82.30
66086;DHT22;52868;49.758;9.586;2022-10-16T06:27:53;17.20;82.40
66086;DHT22;52868;49.758;9.586;2022-10-16T06:30:18;17.20;82.30
66086;DHT22;52868;49.758;9.586;2022-10-16T06:32:44;17.30;82.10
66086;DHT22;52868;49.758;9.586;2022-10-16T06:35:10;17.30;82.00
66086;DHT22;52868;49.758;9.586;2022-10-16T06:37:35;17.30;81.90
66086;DHT22;52868;49.758;9.586;2022-10-16T06:40:01;17.30;81.80
66086;DHT22;52868;49.758;9.586;2022-10-16T06:42:29;17.30;81.90
66086;DHT22;52868;49.758;9.586;2022-10-16T06:44:55;17.30;82.00
66086;DHT22;52868;49.758;9.586;2022-10-16T06:47:21;17.30;81.90
66086;DHT22;52868;49.758;9.586;2022-10-16T06:49:46;17.30;81.70
66086;DHT22;52868;49.758;9.586;2022-10-16T06:52:12;17.30;81.60
66086;DHT22;52868;49.758;9.586;2022-10-16T06:54:38;17.30;81.50
66086;DHT22;52868;49.758;9.586;2022-10-16T06:57:03;17.30;81.40
66086;DHT22;52868;49.758;9.586;2022-10-16T06:59:29;17.30;81.50
66086;DHT22;52868;49.758;9.586;2022-10-16T07:01:54;17.30;81.50
66086;DHT22;52868;49.758;9.586;2022-10-16T07:04:20;17.30;81.40
66086;DHT22;52868;49.758;9.586;2022-10-16T07:06:46;17.30;81.30
66086;DHT22;52868;49.758;9.586;2022-10-16T07:09:11;17.30;81.50
66086;DHT22;52868;49.758;9.586;2022-10-16T07:11:38;17.30;81.40
66086;DHT22;52868;49.758;9.586;2022-10-16T07:14:05;17.30;81.50
66086;DHT22;52868;49.758;9.586;2022-10-16T07:16:37;17.40;81.70
66086;DHT22;52868;49.758;9.586;2022-10-16T07:19:03;17.30;81.50
66086;DHT22;52868;49.758;9.586;2022-10-16T07:21:31;17.30;81.90
66086;DHT22;52868;49.758;9.586;2022-10-16T07:24:01;17.40;82.10
66086;DHT22;52868;49.758;9.586;2022-10-16T07:26:28;17.40;81.80
66086;DHT22;52868;49.758;9.586;2022-10-16T07:28:55;17.30;82.30
66086;DHT22;52868;49.758;9.586;2022-10-16T07:31:22;17.30;82.30
66086;DHT22;52868;49.758;9.586;2022-10-16T07:33:51;17.40;82.20
66086;DHT22;52868;49.758;9.586;2022-10-16T07:36:18;17.40;81.90
66086;DHT22;52868;49.758;9.586;2022-10-16T07:38:47;17.40;81.70
66086;DHT22;52868;49.758;9.586;2022-10-16T07:41:17;17.40;81.70
66086;DHT22;52868;49.758;9.586;2022-10-16T07:43:51;17.40;82.30
66086;DHT22;52868;49.758;9.586;2022-10-16T07:46:18;17.40;82.40
66086;DHT22;52868;49.758;9.586;2022-10-16T07:48:45;17.40;82.20
66086;DHT22;52868;49.758;9.586;2022-10-16T07:51:23;17.50;82.00
66086;DHT22;52868;49.758;9.586;2022-10-16T07:53:48;17.50;81.80
66086;DHT22;52868;49.758;9.586;2022-10-16T07:56:15;17.50;81.70
66086;DHT22;52868;49.758;9.586;2022-10-16T07:58:41;17.50;81.80
66086;DHT22;52868;49.758;9.586;2022-10-16T08:01:09;17.50;81.70
66086;DHT22;52868;49.758;9.586;2022-10-16T08:03:35;17.50;81.60
66086;DHT22;52868;49.758;9.586;2022-10-16T08:06:01;17.50;81.60
66086;DHT22;52868;49.758;9.586;2022-10-16T08:08:27;17.50;81.80
66086;DHT22;52868;49.758;9.586;2022-10-16T08:10:53;17.60;81.70
66086;DHT22;52868;49.758;9.586;2022-10-16T08:13:19;17.50;81.60
66086;DHT22;52868;49.758;9.586;2022-10-16T08:15:48;17.60;81.50
66086;DHT22;52868;49.758;9.586;2022-10-16T08:18:16;17.50;81.50
66086;DHT22;52868;49.758;9.586;2022-10-16T08:20:45;17.50;81.40
66086;DHT22;52868;49.758;9.586;2022-10-16T08:23:14;17.60;81.40
66086;DHT22;52868;49.758;9.586;2022-10-16T08:26:06;17.60;81.40
66086;DHT22;52868;49.758;9.586;2022-10-16T08:29:23;17.60;81.60
66086;DHT22;52868;49.758;9.586;2022-10-16T08:31:55;17.70;81.40
66086;DHT22;52868;49.758;9.586;2022-10-16T08:34:28;17.70;81.40
66086;DHT22;52868;49.758;9.586;2022-10-16T08:36:54;17.70;81.50
66086;DHT22;52868;49.758;9.586;2022-10-16T08:39:20;17.70;81.50
66086;DHT22;52868;49.758;9.586;2022-10-16T08:42:31;17.70;81.40
66086;DHT22;52868;49.758;9.586;2022-10-16T08:44:44;17.80;81.50
66086;DHT22;52868;49.758;9.586;2022-10-16T08:50:26;17.80;81.40
66086;DHT22;52868;49.758;9.586;2022-10-16T08:52:54;17.80;81.50
66086;DHT22;52868;49.758;9.586;2022-10-16T08:55:46;17.80;81.50
66086;DHT22;52868;49.758;9.586;2022-10-16T08:58:13;17.80;81.50
66086;DHT22;52868;49.758;9.586;2022-10-16T09:00:42;17.80;81.40
66086;DHT22;52868;49.758;9.586;2022-10-16T09:03:19;17.80;81.40
66086;DHT22;52868;49.758;9.586;2022-10-16T09:10:59;17.80;81.20
66086;DHT22;52868;49.758;9.586;2022-10-16T09:16:49;17.90;81.30
66086;DHT22;52868;49.758;9.586;2022-10-16T09:19:40;17.90;81.20
66086;DHT22;52868;49.758;9.586;2022-10-16T09:22:17;17.90;81.30
66086;DHT22;52868;49.758;9.586;2022-10-16T09:24:43;17.80;81.30
66086;DHT22;52868;49.758;9.586;2022-10-16T09:27:14;17.90;81.40
66086;DHT22;52868;49.758;9.586;2022-10-16T09:29:40;17.90;81.30
66086;DHT22;52868;49.758;9.586;2022-10-16T09:32:15;17.90;81.30
66086;DHT22;52868;49.758;9.586;2022-10-16T09:34:47;17.90;81.50
66086;DHT22;52868;49.758;9.586;2022-10-16T09:37:16;17.90;81.50
66086;DHT22;52868;49.758;9.586;2022-10-16T09:39:50;17.90;81.40
66086;DHT22;52868;49.758;9.586;2022-10-16T09:44:53;17.90;81.50
66086;DHT22;52868;49.758;9.586;2022-10-16T09:47:25;17.90;81.70
66086;DHT22;52868;49.758;9.586;2022-10-16T09:50:22;17.90;81.60
66086;DHT22;52868;49.758;9.586;2022-10-16T09:52:48;18.00;81.70
66086;DHT22;52868;49.758;9.586;2022-10-16T09:55:16;18.00;82.00
66086;DHT22;52868;49.758;9.586;2022-10-16T09:57:50;18.00;82.40
66086;DHT22;52868;49.758;9.586;2022-10-16T10:00:17;18.00;82.40
66086;DHT22;52868;49.758;9.586;2022-10-16T10:02:43;18.00;82.60
66086;DHT22;52868;49.758;9.586;2022-10-16T10:05:25;18.00;82.30
66086;DHT22;52868;49.758;9.586;2022-10-16T10:08:02;18.00;82.80
66086;DHT22;52868;49.758;9.586;2022-10-16T10:10:33;18.00;82.70
66086;DHT22;52868;49.758;9.586;2022-10-16T10:13:00;18.00;82.30
66086;DHT22;52868;49.758;9.586;2022-10-16T10:15:29;18.00;82.20
66086;DHT22;52868;49.758;9.586;2022-10-16T10:17:58;18.00;82.40
66086;DHT22;52868;49.758;9.586;2022-10-16T10:20:35;17.90;82.60
66086;DHT22;52868;49.758;9.586;2022-10-16T10:23:21;17.90;82.60
66086;DHT22;52868;49.758;9.586;2022-10-16T10:31:26;18.00;82.40
66086;DHT22;52868;49.758;9.586;2022-10-16T10:51:04;18.20;82.40
66086;DHT22;52868;49.758;9.586;2022-10-16T10:53:41;18.20;82.50
66086;DHT22;52868;49.758;9.586;2022-10-16T10:59:17;18.20;82.00
66086;DHT22;52868;49.758;9.586;2022-10-16T11:07:04;18.30;82.20
66086;DHT22;52868;49.758;9.586;2022-10-16T11:09:42;18.30;82.40
66086;DHT22;52868;49.758;9.586;2022-10-16T11:12:20;18.30;82.20
66086;DHT22;52868;49.758;9.586;2022-10-16T11:15:04;18.30;82.30
66086;DHT22;52868;49.758;9.586;2022-10-16T11:17:41;18.30;82.10
66086;DHT22;52868;49.758;9.586;2022-10-16T11:20:44;18.40;82.30
66086;DHT22;52868;49.758;9.586;2022-10-16T11:23:26;18.40;82.20
66086;DHT22;52868;49.758;9.586;2022-10-16T11:25:57;18.40;82.10
66086;DHT22;52868;49.758;9.586;2022-10-16T11:28:35;18.50;82.60
66086;DHT22;52868;49.758;9.586;2022-10-16T11:31:24;18.50;82.20
66086;DHT22;52868;49.758;9.586;2022-10-16T11:34:12;18.60;82.30
66086;DHT22;52868;49.758;9.586;2022-10-16T11:36:58;18.60;82.10
66086;DHT22;52868;49.758;9.586;2022-10-16T11:39:28;18.70;82.10
66086;DHT22;52868;49.758;9.586;2022-10-16T11:42:10;18.80;82.30
66086;DHT22;52868;49.758;9.586;2022-10-16T11:47:43;18.90;82.70
66086;DHT22;52868;49.758;9.586;2022-10-16T11:50:39;18.90;82.10
66086;DHT22;52868;49.758;9.586;2022-10-16T11:55:51;19.20;82.10
66086;DHT22;52868;49.758;9.586;2022-10-16T11:58:27;19.10;81.60
66086;DHT22;52868;49.758;9.586;2022-10-16T12:04:29;19.20;81.80
66086;DHT22;52868;49.758;9.586;2022-10-16T12:06:55;19.20;81.60
66086;DHT22;52868;49.758;9.586;2022-10-16T12:09:29;19.10;81.70
66086;DHT22;52868;49.758;9.586;2022-10-16T12:11:55;19.20;81.80
66086;DHT22;52868;49.758;9.586;2022-10-16T12:14:34;19.20;82.00
66086;DHT22;52868;49.758;9.586;2022-10-16T12:17:03;19.30;82.00
66086;DHT22;52868;49.758;9.586;2022-10-16T12:19:32;19.30;82.00
66086;DHT22;52868;49.758;9.586;2022-10-16T12:22:02;19.30;81.90
66086;DHT22;52868;49.758;9.586;2022-10-16T12:24:35;19.40;82.10
66086;DHT22;52868;49.758;9.586;2022-10-16T12:27:04;19.40;81.80
66086;DHT22;52868;49.758;9.586;2022-10-16T12:29:41;19.30;82.00
66086;DHT22;52868;49.758;9.586;2022-10-16T12:32:34;19.40;82.20
66086;DHT22;52868;49.758;9.586;2022-10-16T12:35:01;19.50;81.50
66086;DHT22;52868;49.758;9.586;2022-10-16T12:37:31;19.50;81.70
66086;DHT22;52868;49.758;9.586;2022-10-16T12:39:59;19.50;81.80
66086;DHT22;52868;49.758;9.586;2022-10-16T12:44:55;19.50;81.70
66086;DHT22;52868;49.758;9.586;2022-10-16T12:47:38;19.50;81.60
66086;DHT22;52868;49.758;9.586;2022-10-16T12:50:30;19.50;81.50
66086;DHT22;52868;49.758;9.586;2022-10-16T12:52:57;19.50;81.80
66086;DHT22;52868;49.758;9.586;2022-10-16T12:55:23;19.50;81.60
66086;DHT22;52868;49.758;9.586;2022-10-16T13:14:36;19.70;81.50
66086;DHT22;52868;49.758;9.586;2022-10-16T13:22:21;19.70;80.70
66086;DHT22;52868;49.758;9.586;2022-10-16T13:30:19;19.60;80.40
66086;DHT22;52868;49.758;9.586;2022-10-16T13:32:46;19.70;80.30
66086;DHT22;52868;49.758;9.586;2022-10-16T13:35:46;19.70;80.10
66086;DHT22;52868;49.758;9.586;2022-10-16T13:38:19;19.70;80.10
66086;DHT22;52868;49.758;9.586;2022-10-16T13:43:46;19.60;80.00
66086;DHT22;52868;49.758;9.586;2022-10-16T13:46:19;19.60;80.10
66086;DHT22;52868;49.758;9.586;2022-10-16T13:48:57;19.60;80.10
66086;DHT22;52868;49.758;9.586;2022-10-16T13:51:22;19.60;80.30
66086;DHT22;52868;49.758;9.586;2022-10-16T13:53:48;19.60;80.40
66086;DHT22;52868;49.758;9.586;2022-10-16T13:56:17;19.60;80.60
66086;DHT22;52868;49.758;9.586;2022-10-16T13:58:43;19.60;80.60
66086;DHT22;52868;49.758;9.586;2022-10-16T14:01:22;19.70;80.80
66086;DHT22;52868;49.758;9.586;2022-10-16T14:03:49;19.70;81.00
66086;DHT22;52868;49.758;9.586;2022-10-16T14:06:20;19.70;81.10
66086;DHT22;52868;49.758;9.586;2022-10-16T14:08:58;19.70;80.80
66086;DHT22;52868;49.758;9.586;2022-10-16T14:11:24;19.70;80.60
66086;DHT22;52868;49.758;9.586;2022-10-16T14:13:51;19.70;80.60
66086;DHT22;52868;49.758;9.586;2022-10-16T14:16:22;19.70;80.50
66086;DHT22;52868;49.758;9.586;2022-10-16T14:19:03;19.70;80.30
66086;DHT22;52868;49.758;9.586;2022-10-16T14:21:30;19.70;80.40
66086;DHT22;52868;49.758;9.586;2022-10-16T14:23:57;19.70;80.30
66086;DHT22;52868;49.758;9.586;2022-10-16T14:26:27;19.70;80.30
66086;DHT22;52868;49.758;9.586;2022-10-16T14:29:14;19.60;80.30
66086;DHT22;52868;49.758;9.586;2022-10-16T14:31:41;19.70;80.30
66086;DHT22;52868;49.758;9.586;2022-10-16T14:36:59;19.70;80.10
66086;DHT22;52868;49.758;9.586;2022-10-16T14:39:26;19.60;80.20
66086;DHT22;52868;49.758;9.586;2022-10-16T14:41:54;19.60;80.10
66086;DHT22;52868;49.758;9.586;2022-10-16T14:44:33;19.60;80.10
66086;DHT22;52868;49.758;9.586;2022-10-16T14:47:10;19.60;80.20
66086;DHT22;52868;49.758;9.586;2022-10-16T14:49:38;19.60;80.40
66086;DHT22;52868;49.758;9.586;2022-10-16T14:52:12;19.60;80.70
66086;DHT22;52868;49.758;9.586;2022-10-16T14:54:38;19.70;81.20
66086;DHT22;52868;49.758;9.586;2022-10-16T14:57:04;19.60;81.10
66086;DHT22;52868;49.758;9.586;2022-10-16T14:59:41;19.60;81.00
66086;DHT22;52868;49.758;9.586;2022-10-16T15:04:43;19.60;81.10
66086;DHT22;52868;49.758;9.586;2022-10-16T15:07:08;19.60;81.20
66086;DHT22;52868;49.758;9.586;2022-10-16T15:09:34;19.60;81.20
66086;DHT22;52868;49.758;9.586;2022-10-16T15:11:59;19.60;81.40
66086;DHT22;52868;49.758;9.586;2022-10-16T15:14:25;19.50;81.30
66086;DHT22;52868;49.758;9.586;2022-10-16T15:16:51;19.50;81.30
66086;DHT22;52868;49.758;9.586;2022-10-16T15:19:16;19.50;81.60
66086;DHT22;52868;49.758;9.586;2022-10-16T15:21:42;19.60;81.40
66086;DHT22;52868;49.758;9.586;2022-10-16T15:24:11;19.50;81.50
66086;DHT22;52868;49.758;9.586;2022-10-16T15:26:38;19.50;81.40
66086;DHT22;52868;49.758;9.586;2022-10-16T15:29:04;19.50;81.50
66086;DHT22;52868;49.758;9.586;2022-10-16T15:31:30;19.50;81.40
66086;DHT22;52868;49.758;9.586;2022-10-16T15:33:56;19.50;81.40
66086;DHT22;52868;49.758;9.586;2022-10-16T15:36:37;19.50;81.50
66086;DHT22;52868;49.758;9.586;2022-10-16T15:39:04;19.50;81.50
66086;DHT22;52868;49.758;9.586;2022-10-16T15:41:30;19.50;81.70
66086;DHT22;52868;49.758;9.586;2022-10-16T15:43:56;19.50;81.50
66086;DHT22;52868;49.758;9.586;2022-10-16T15:46:23;19.50;81.50
66086;DHT22;52868;49.758;9.586;2022-10-16T15:48:50;19.50;81.40
66086;DHT22;52868;49.758;9.586;2022-10-16T15:51:20;19.40;81.20
66086;DHT22;52868;49.758;9.586;2022-10-16T15:53:46;19.40;81.10
66086;DHT22;52868;49.758;9.586;2022-10-16T15:56:12;19.40;81.10
66086;DHT22;52868;49.758;9.586;2022-10-16T15:58:38;19.40;81.20
66086;DHT22;52868;49.758;9.586;2022-10-16T16:01:05;19.40;81.20
66086;DHT22;52868;49.758;9.586;2022-10-16T16:03:32;19.40;81.20
66086;DHT22;52868;49.758;9.586;2022-10-16T16:05:58;19.40;81.40
66086;DHT22;52868;49.758;9.586;2022-10-16T16:08:24;19.40;81.30
66086;DHT22;52868;49.758;9.586;2022-10-16T16:13:29;19.40;81.50
66086;DHT22;52868;49.758;9.586;2022-10-16T16:15:55;19.40;81.40
66086;DHT22;52868;49.758;9.586;2022-10-16T16:18:20;19.40;81.50
66086;DHT22;52868;49.758;9.586;2022-10-16T16:20:46;19.40;81.40
66086;DHT22;52868;49.758;9.586;2022-10-16T16:23:12;19.40;81.50
66086;DHT22;52868;49.758;9.586;2022-10-16T16:25:38;19.40;81.40
66086;DHT22;52868;49.758;9.586;2022-10-16T16:28:03;19.30;81.50
66086;DHT22;52868;49.758;9.586;2022-10-16T16:30:29;19.30;81.40
66086;DHT22;52868;49.758;9.586;2022-10-16T16:32:55;19.30;81.50
66086;DHT22;52868;49.758;9.586;2022-10-16T16:35:20;19.30;81.60
66086;DHT22;52868;49.758;9.586;2022-10-16T16:37:47;19.30;81.50
66086;DHT22;52868;49.758;9.586;2022-10-16T16:40:13;19.30;81.50
66086;DHT22;52868;49.758;9.586;2022-10-16T16:42:38;19.30;81.50
66086;DHT22;52868;49.758;9.586;2022-10-16T16:45:04;19.20;81.70
66086;DHT22;52868;49.758;9.586;2022-10-16T16:47:30;19.30;81.60
66086;DHT22;52868;49.758;9.586;2022-10-16T16:49:56;19.30;81.40
66086;DHT22;52868;49.758;9.586;2022-10-16T16:52:21;19.20;81.40
66086;DHT22;52868;49.758;9.586;2022-10-16T16:54:47;19.20;81.40
66086;DHT22;52868;49.758;9.586;2022-10-16T16:57:18;19.20;81.40
66086;DHT22;52868;49.758;9.586;2022-10-16T16:59:44;19.10;81.40
66086;DHT22;52868;49.758;9.586;2022-10-16T17:02:10;19.10;81.40
66086;DHT22;52868;49.758;9.586;2022-10-16T17:04:35;19.10;81.40
66086;DHT22;52868;49.758;9.586;2022-10-16T17:07:01;19.10;81.40
66086;DHT22;52868;49.758;9.586;2022-10-16T17:09:27;19.00;81.30
66086;DHT22;52868;49.758;9.586;2022-10-16T17:11:52;18.90;81.30
66086;DHT22;52868;49.758;9.586;2022-10-16T17:14:18;18.90;81.40
66086;DHT22;52868;49.758;9.586;2022-10-16T17:16:44;18.90;81.30
66086;DHT22;52868;49.758;9.586;2022-10-16T17:19:15;18.90;81.20
66086;DHT22;52868;49.758;9.586;2022-10-16T17:21:41;18.90;81.30
66086;DHT22;52868;49.758;9.586;2022-10-16T17:24:07;18.80;81.20
66086;DHT22;52868;49.758;9.586;2022-10-16T17:26:33;18.80;81.20
66086;DHT22;52868;49.758;9.586;2022-10-16T17:29:03;18.80;81.20